sensor_id;sensor_type;location;lat;lon;timestamp;temperature;humidity
3912;DHT22;1971;51.778;10.330;2023-06-10T00:01:13;16.60;1.00
3912;DHT22;1971;51.778;10.330;2023-06-10T00:03:44;16.50;1.00
3912;DHT22;1971;51.778;10.330;2023-06-10T00:06:15;16.40;1.00
3912;DHT22;1971;51.778;10.330;2023-06-10T00:08:47;16.40;1.00
3912;DHT22;1971;51.778;10.330;2023-06-10T00:11:18;16.40;1.00
3912;DHT22;1971;51.778;10.330;2023-06-10T00:13:48;16.50;1.00
3912;DHT22;1971;51.778;10.330;2023-06-10T00:16:18;16.50;1.00
3912;DHT22;1971;51.778;10.330;2023-06-10T00:18:49;16.50;1.00
3912;DHT22;1971;51.778;10.330;2023-06-10T00:21:20;16.30;1.00
3912;DHT22;1971;51.778;10.330;2023-06-10T00:23:54;16.40;1.00
3912;DHT22;1971;51.778;10.330;2023-06-10T00:26:24;16.50;1.00
3912;DHT22;1971;51.778;10.330;2023-06-10T00:28:55;16.50;1.00
3912;DHT22;1971;51.778;10.330;2023-06-10T00:31:27;16.40;1.00
3912;DHT22;1971;51.778;10.330;2023-06-10T00:33:57;16.40;1.00
3912;DHT22;1971;51.778;10.330;2023-06-10T00:36:28;16.40;1.00
3912;DHT22;1971;51.778;10.330;2023-06-10T00:39:00;16.40;1.00
3912;DHT22;1971;51.778;10.330;2023-06-10T00:41:31;16.50;1.00
3912;DHT22;1971;51.778;10.330;2023-06-10T00:44:02;16.40;1.00
3912;DHT22;1971;51.778;10.330;2023-06-10T00:46:32;16.30;1.00
3912;DHT22;1971;51.778;10.330;2023-06-10T00:49:02;16.30;1.00
3912;DHT22;1971;51.778;10.330;2023-06-10T00:51:32;16.30;1.00
3912;DHT22;1971;51.778;10.330;2023-06-10T00:54:07;16.30;1.00
3912;DHT22;1971;51.778;10.330;2023-06-10T00:56:41;16.30;1.00
3912;DHT22;1971;51.778;10.330;2023-06-10T00:59:11;16.30;1.00
3912;DHT22;1971;51.778;10.330;2023-06-10T01:01:42;16.30;1.00
3912;DHT22;1971;51.778;10.330;2023-06-10T01:04:14;16.30;1.00
3912;DHT22;1971;51.778;10.330;2023-06-10T01:06:53;16.40;1.00
3912;DHT22;1971;51.778;10.330;2023-06-10T01:09:33;16.40;1.00
3912;DHT22;1971;51.778;10.330;2023-06-10T01:12:12;16.40;1.00
3912;DHT22;1971;51.778;10.330;2023-06-10T01:14:43;16.50;1.00
3912;DHT22;1971;51.778;10.330;2023-06-10T01:17:13;16.50;1.00
3912;DHT22;1971;51.778;10.330;2023-06-10T01:19:53;16.30;1.00
3912;DHT22;1971;51.778;10.330;2023-06-10T01:22:27;16.10;1.00
3912;DHT22;1971;51.778;10.330;2023-06-10T01:24:59;16.10;1.00
3912;DHT22;1971;51.778;10.330;2023-06-10T01:27:33;16.20;1.00
3912;DHT22;1971;51.778;10.330;2023-06-10T01:30:14;16.30;1.00
3912;DHT22;1971;51.778;10.330;2023-06-10T01:32:47;16.30;1.00
3912;DHT22;1971;51.778;10.330;2023-06-10T01:35:21;16.20;1.00
3912;DHT22;1971;51.778;10.330;2023-06-10T01:37:57;16.10;1.00
3912;DHT22;1971;51.778;10.330;2023-06-10T01:40:29;16.00;1.00
3912;DHT22;1971;51.778;10.330;2023-06-10T01:42:59;15.90;1.00
3912;DHT22;1971;51.778;10.330;2023-06-10T01:45:29;16.00;1.00
3912;DHT22;1971;51.778;10.330;2023-06-10T01:47:59;15.90;1.00
3912;DHT22;1971;51.778;10.330;2023-06-10T01:50:29;15.70;1.00
3912;DHT22;1971;51.778;10.330;2023-06-10T01:53:03;15.50;1.00
3912;DHT22;1971;51.778;10.330;2023-06-10T01:55:33;15.40;1.00
3912;DHT22;1971;51.778;10.330;2023-06-10T01:58:03;15.20;1.00
3912;DHT22;1971;51.778;10.330;2023-06-10T02:00:33;15.20;1.00
3912;DHT22;1971;51.778;10.330;2023-06-10T02:03:04;15.20;1.00
3912;DHT22;1971;51.778;10.330;2023-06-10T02:05:35;15.10;1.00
3912;DHT22;1971;51.778;10.330;2023-06-10T02:08:08;14.90;1.00
3912;DHT22;1971;51.778;10.330;2023-06-10T02:10:38;14.90;1.00
3912;DHT22;1971;51.778;10.330;2023-06-10T02:13:08;14.80;1.00
3912;DHT22;1971;51.778;10.330;2023-06-10T02:15:38;14.70;1.00
3912;DHT22;1971;51.778;10.330;2023-06-10T02:18:08;14.70;1.00
3912;DHT22;1971;51.778;10.330;2023-06-10T02:20:39;14.90;1.00
3912;DHT22;1971;51.778;10.330;2023-06-10T02:23:11;15.10;1.00
3912;DHT22;1971;51.778;10.330;2023-06-10T02:25:42;15.20;1.00
3912;DHT22;1971;51.778;10.330;2023-06-10T02:28:12;15.00;1.00
3912;DHT22;1971;51.778;10.330;2023-06-10T02:30:42;14.90;1.00
3912;DHT22;1971;51.778;10.330;2023-06-10T02:41:03;14.60;1.00
3912;DHT22;1971;51.778;10.330;2023-06-10T02:44:37;14.60;1.00
3912;DHT22;1971;51.778;10.330;2023-06-10T02:51:42;15.00;1.00
3912;DHT22;1971;51.778;10.330;2023-06-10T03:06:30;14.40;1.00
3912;DHT22;1971;51.778;10.330;2023-06-10T03:10:09;14.50;1.00
3912;DHT22;1971;51.778;10.330;2023-06-10T03:14:18;14.50;1.00
3912;DHT22;1971;51.778;10.330;2023-06-10T03:18:01;14.40;1.00
3912;DHT22;1971;51.778;10.330;2023-06-10T03:24:47;14.70;1.00
3912;DHT22;1971;51.778;10.330;2023-06-10T03:32:08;14.40;1.00
3912;DHT22;1971;51.778;10.330;2023-06-10T03:57:07;14.80;1.00
3912;DHT22;1971;51.778;10.330;2023-06-10T04:04:54;14.60;1.00
3912;DHT22;1971;51.778;10.330;2023-06-10T04:11:20;14.80;1.00
3912;DHT22;1971;51.778;10.330;2023-06-10T04:40:06;16.50;1.00
3912;DHT22;1971;51.778;10.330;2023-06-10T04:43:50;16.60;1.00
3912;DHT22;1971;51.778;10.330;2023-06-10T04:47:08;16.80;1.00
3912;DHT22;1971;51.778;10.330;2023-06-10T04:51:18;17.10;1.00
3912;DHT22;1971;51.778;10.330;2023-06-10T04:54:57;17.50;1.00
3912;DHT22;1971;51.778;10.330;2023-06-10T05:05:04;18.20;1.00
3912;DHT22;1971;51.778;10.330;2023-06-10T05:08:31;18.10;1.00
3912;DHT22;1971;51.778;10.330;2023-06-10T05:15:21;18.40;1.00
3912;DHT22;1971;51.778;10.330;2023-06-10T05:18:36;18.50;1.00
3912;DHT22;1971;51.778;10.330;2023-06-10T05:33:32;18.80;1.00
3912;DHT22;1971;51.778;10.330;2023-06-10T05:41:03;19.30;1.00
3912;DHT22;1971;51.778;10.330;2023-06-10T05:44:06;19.40;1.00
3912;DHT22;1971;51.778;10.330;2023-06-10T05:47:31;19.40;1.00
3912;DHT22;1971;51.778;10.330;2023-06-10T05:50:55;19.40;1.00
3912;DHT22;1971;51.778;10.330;2023-06-10T05:54:15;19.40;1.00
3912;DHT22;1971;51.778;10.330;2023-06-10T05:58:03;19.30;1.00
3912;DHT22;1971;51.778;10.330;2023-06-10T06:01:11;19.50;1.00
3912;DHT22;1971;51.778;10.330;2023-06-10T06:04:00;19.80;1.00
3912;DHT22;1971;51.778;10.330;2023-06-10T06:10:23;20.10;2.40
3912;DHT22;1971;51.778;10.330;2023-06-10T06:17:17;20.10;14.70
3912;DHT22;1971;51.778;10.330;2023-06-10T06:20:56;20.20;20.10
3912;DHT22;1971;51.778;10.330;2023-06-10T06:24:50;20.30;28.00
3912;DHT22;1971;51.778;10.330;2023-06-10T06:28:21;20.50;27.60
3912;DHT22;1971;51.778;10.330;2023-06-10T06:32:13;20.60;34.60
3912;DHT22;1971;51.778;10.330;2023-06-10T06:43:28;21.30;41.30
3912;DHT22;1971;51.778;10.330;2023-06-10T06:51:25;21.60;36.40
3912;DHT22;1971;51.778;10.330;2023-06-10T06:55:03;21.60;50.50
3912;DHT22;1971;51.778;10.330;2023-06-10T07:13:52;22.10;26.40
3912;DHT22;1971;51.778;10.330;2023-06-10T07:41:49;23.20;36.30
3912;DHT22;1971;51.778;10.330;2023-06-10T07:44:21;23.10;37.20
3912;DHT22;1971;51.778;10.330;2023-06-10T07:46:51;23.20;44.40
3912;DHT22;1971;51.778;10.330;2023-06-10T07:49:21;23.40;39.20
3912;DHT22;1971;51.778;10.330;2023-06-10T07:51:51;23.30;34.00
3912;DHT22;1971;51.778;10.330;2023-06-10T07:54:21;23.30;44.20
3912;DHT22;1971;51.778;10.330;2023-06-10T07:56:57;23.50;34.60
3912;DHT22;1971;51.778;10.330;2023-06-10T07:59:27;23.50;45.60
3912;DHT22;1971;51.778;10.330;2023-06-10T08:01:57;23.70;24.90
3912;DHT22;1971;51.778;10.330;2023-06-10T08:04:30;23.60;32.40
3912;DHT22;1971;51.778;10.330;2023-06-10T08:07:03;23.60;27.40
3912;DHT22;1971;51.778;10.330;2023-06-10T08:09:33;23.50;36.00
3912;DHT22;1971;51.778;10.330;2023-06-10T08:12:07;23.70;26.00
3912;DHT22;1971;51.778;10.330;2023-06-10T08:14:40;23.80;35.30
3912;DHT22;1971;51.778;10.330;2023-06-10T08:17:11;23.80;32.30
3912;DHT22;1971;51.778;10.330;2023-06-10T08:19:41;23.80;23.20
3912;DHT22;1971;51.778;10.330;2023-06-10T08:22:11;24.00;32.70
3912;DHT22;1971;51.778;10.330;2023-06-10T08:24:41;23.90;26.10
3912;DHT22;1971;51.778;10.330;2023-06-10T08:27:17;24.00;25.40
3912;DHT22;1971;51.778;10.330;2023-06-10T08:29:48;23.70;15.30
3912;DHT22;1971;51.778;10.330;2023-06-10T08:32:25;23.50;6.60
3912;DHT22;1971;51.778;10.330;2023-06-10T08:35:35;23.10;1.00
3912;DHT22;1971;51.778;10.330;2023-06-10T08:39:10;22.90;5.80
3912;DHT22;1971;51.778;10.330;2023-06-10T08:50:16;23.60;25.90
3912;DHT22;1971;51.778;10.330;2023-06-10T08:58:20;24.20;15.00
3912;DHT22;1971;51.778;10.330;2023-06-10T09:01:51;24.40;21.30
3912;DHT22;1971;51.778;10.330;2023-06-10T09:49:59;23.70;8.10
3912;DHT22;1971;51.778;10.330;2023-06-10T10:00:05;24.40;28.20
3912;DHT22;1971;51.778;10.330;2023-06-10T10:03:33;24.60;34.30
3912;DHT22;1971;51.778;10.330;2023-06-10T10:10:52;23.50;20.70
3912;DHT22;1971;51.778;10.330;2023-06-10T10:14:07;23.10;17.70
3912;DHT22;1971;51.778;10.330;2023-06-10T10:21:01;22.40;20.60
3912;DHT22;1971;51.778;10.330;2023-06-10T10:39:36;22.30;52.20
3912;DHT22;1971;51.778;10.330;2023-06-10T10:42:10;23.10;66.00
3912;DHT22;1971;51.778;10.330;2023-06-10T10:44:41;23.50;70.40
3912;DHT22;1971;51.778;10.330;2023-06-10T10:47:14;23.50;63.60
3912;DHT22;1971;51.778;10.330;2023-06-10T10:49:46;23.50;49.10
3912;DHT22;1971;51.778;10.330;2023-06-10T10:52:18;23.40;50.80
3912;DHT22;1971;51.778;10.330;2023-06-10T10:54:53;23.20;52.90
3912;DHT22;1971;51.778;10.330;2023-06-10T10:57:24;23.50;58.70
3912;DHT22;1971;51.778;10.330;2023-06-10T10:59:58;23.70;50.80
3912;DHT22;1971;51.778;10.330;2023-06-10T11:02:34;24.10;59.20
3912;DHT22;1971;51.778;10.330;2023-06-10T11:05:07;24.40;52.10
3912;DHT22;1971;51.778;10.330;2023-06-10T11:07:37;24.30;42.40
3912;DHT22;1971;51.778;10.330;2023-06-10T11:10:12;24.10;42.00
3912;DHT22;1971;51.778;10.330;2023-06-10T11:12:50;23.80;25.50
3912;DHT22;1971;51.778;10.330;2023-06-10T11:15:24;23.80;1.00
3912;DHT22;1971;51.778;10.330;2023-06-10T11:18:13;24.00;1.00
3912;DHT22;1971;51.778;10.330;2023-06-10T11:20:50;24.30;1.00
3912;DHT22;1971;51.778;10.330;2023-06-10T11:23:35;24.50;1.00
3912;DHT22;1971;51.778;10.330;2023-06-10T11:26:18;24.90;1.00
3912;DHT22;1971;51.778;10.330;2023-06-10T11:29:07;25.50;1.00
3912;DHT22;1971;51.778;10.330;2023-06-10T11:31:51;26.10;1.00
3912;DHT22;1971;51.778;10.330;2023-06-10T11:34:23;26.10;1.00
3912;DHT22;1971;51.778;10.330;2023-06-10T11:36:54;26.00;1.00
3912;DHT22;1971;51.778;10.330;2023-06-10T11:39:26;26.20;1.00
3912;DHT22;1971;51.778;10.330;2023-06-10T11:41:59;26.20;1.00
3912;DHT22;1971;51.778;10.330;2023-06-10T11:44:29;26.30;1.00
3912;DHT22;1971;51.778;10.330;2023-06-10T11:47:01;26.40;1.00
3912;DHT22;1971;51.778;10.330;2023-06-10T11:49:31;26.40;1.00
3912;DHT22;1971;51.778;10.330;2023-06-10T11:52:04;26.30;1.00
3912;DHT22;1971;51.778;10.330;2023-06-10T11:54:34;26.50;1.00
3912;DHT22;1971;51.778;10.330;2023-06-10T11:57:07;26.50;1.00
3912;DHT22;1971;51.778;10.330;2023-06-10T11:59:37;26.60;1.00
3912;DHT22;1971;51.778;10.330;2023-06-10T12:02:15;26.40;1.00
3912;DHT22;1971;51.778;10.330;2023-06-10T12:04:46;26.30;1.00
3912;DHT22;1971;51.778;10.330;2023-06-10T12:07:19;26.30;1.00
3912;DHT22;1971;51.778;10.330;2023-06-10T12:09:59;26.10;1.00
3912;DHT22;1971;51.778;10.330;2023-06-10T12:12:52;26.10;1.00
3912;DHT22;1971;51.778;10.330;2023-06-10T12:15:24;26.20;1.00
3912;DHT22;1971;51.778;10.330;2023-06-10T12:17:56;26.30;1.00
3912;DHT22;1971;51.778;10.330;2023-06-10T12:20:27;26.20;1.00
3912;DHT22;1971;51.778;10.330;2023-06-10T12:23:00;25.80;1.00
3912;DHT22;1971;51.778;10.330;2023-06-10T12:25:30;25.60;1.00
3912;DHT22;1971;51.778;10.330;2023-06-10T12:28:03;25.90;1.00
3912;DHT22;1971;51.778;10.330;2023-06-10T12:30:33;26.00;1.00
3912;DHT22;1971;51.778;10.330;2023-06-10T12:33:04;26.20;1.00
3912;DHT22;1971;51.778;10.330;2023-06-10T12:35:34;26.70;1.00
3912;DHT22;1971;51.778;10.330;2023-06-10T12:38:05;26.80;1.00
3912;DHT22;1971;51.778;10.330;2023-06-10T12:40:36;26.90;1.00
3912;DHT22;1971;51.778;10.330;2023-06-10T12:43:10;26.90;1.00
3912;DHT22;1971;51.778;10.330;2023-06-10T12:45:41;27.00;1.00
3912;DHT22;1971;51.778;10.330;2023-06-10T12:48:12;26.80;1.00
3912;DHT22;1971;51.778;10.330;2023-06-10T12:50:51;26.60;1.00
3912;DHT22;1971;51.778;10.330;2023-06-10T12:53:21;26.30;1.00
3912;DHT22;1971;51.778;10.330;2023-06-10T12:55:53;26.30;1.00
3912;DHT22;1971;51.778;10.330;2023-06-10T12:58:27;26.50;1.00
3912;DHT22;1971;51.778;10.330;2023-06-10T13:00:57;26.40;1.00
3912;DHT22;1971;51.778;10.330;2023-06-10T13:03:27;26.20;1.00
3912;DHT22;1971;51.778;10.330;2023-06-10T13:05:58;26.30;1.00
3912;DHT22;1971;51.778;10.330;2023-06-10T13:08:28;26.40;1.00
3912;DHT22;1971;51.778;10.330;2023-06-10T13:10:58;26.30;1.00
3912;DHT22;1971;51.778;10.330;2023-06-10T13:13:31;26.40;1.00
3912;DHT22;1971;51.778;10.330;2023-06-10T13:16:01;26.50;1.00
3912;DHT22;1971;51.778;10.330;2023-06-10T13:18:31;26.50;1.00
3912;DHT22;1971;51.778;10.330;2023-06-10T13:21:05;26.60;1.00
3912;DHT22;1971;51.778;10.330;2023-06-10T13:23:35;26.60;1.00
3912;DHT22;1971;51.778;10.330;2023-06-10T13:26:06;26.60;1.00
3912;DHT22;1971;51.778;10.330;2023-06-10T13:28:38;26.70;1.00
3912;DHT22;1971;51.778;10.330;2023-06-10T13:31:09;26.90;1.00
3912;DHT22;1971;51.778;10.330;2023-06-10T13:33:39;27.00;1.00
3912;DHT22;1971;51.778;10.330;2023-06-10T13:36:10;26.90;1.00
3912;DHT22;1971;51.778;10.330;2023-06-10T13:38:40;27.00;1.00
3912;DHT22;1971;51.778;10.330;2023-06-10T13:41:10;27.10;1.00
3912;DHT22;1971;51.778;10.330;2023-06-10T13:43:43;27.10;1.00
3912;DHT22;1971;51.778;10.330;2023-06-10T13:46:13;26.90;1.00
3912;DHT22;1971;51.778;10.330;2023-06-10T13:48:43;26.60;1.00
3912;DHT22;1971;51.778;10.330;2023-06-10T13:51:13;26.80;1.00
3912;DHT22;1971;51.778;10.330;2023-06-10T13:53:44;26.60;1.00
3912;DHT22;1971;51.778;10.330;2023-06-10T13:56:13;26.60;1.00
3912;DHT22;1971;51.778;10.330;2023-06-10T13:58:46;26.30;1.00
3912;DHT22;1971;51.778;10.330;2023-06-10T14:01:16;26.70;1.00
3912;DHT22;1971;51.778;10.330;2023-06-10T14:03:46;27.00;1.00
3912;DHT22;1971;51.778;10.330;2023-06-10T14:06:17;27.00;1.00
3912;DHT22;1971;51.778;10.330;2023-06-10T14:08:47;26.90;1.00
3912;DHT22;1971;51.778;10.330;2023-06-10T14:11:17;26.80;1.00
3912;DHT22;1971;51.778;10.330;2023-06-10T14:13:50;26.80;1.00
3912;DHT22;1971;51.778;10.330;2023-06-10T14:16:23;27.10;1.00
3912;DHT22;1971;51.778;10.330;2023-06-10T14:18:53;27.00;1.00
3912;DHT22;1971;51.778;10.330;2023-06-10T14:21:26;26.70;1.00
3912;DHT22;1971;51.778;10.330;2023-06-10T14:23:57;26.30;1.00
3912;DHT22;1971;51.778;10.330;2023-06-10T14:26:27;26.50;1.00
3912;DHT22;1971;51.778;10.330;2023-06-10T14:29:01;26.80;1.00
3912;DHT22;1971;51.778;10.330;2023-06-10T14:31:32;26.80;1.00
3912;DHT22;1971;51.778;10.330;2023-06-10T14:34:03;26.50;1.00
3912;DHT22;1971;51.778;10.330;2023-06-10T14:36:35;26.20;1.00
3912;DHT22;1971;51.778;10.330;2023-06-10T14:39:06;26.00;1.00
3912;DHT22;1971;51.778;10.330;2023-06-10T14:41:36;26.30;1.00
3912;DHT22;1971;51.778;10.330;2023-06-10T14:44:09;26.70;1.00
3912;DHT22;1971;51.778;10.330;2023-06-10T14:46:39;26.60;1.00
3912;DHT22;1971;51.778;10.330;2023-06-10T14:49:10;27.00;1.00
3912;DHT22;1971;51.778;10.330;2023-06-10T14:51:40;27.20;1.00
3912;DHT22;1971;51.778;10.330;2023-06-10T14:54:10;26.90;1.00
3912;DHT22;1971;51.778;10.330;2023-06-10T14:56:40;26.90;1.00
3912;DHT22;1971;51.778;10.330;2023-06-10T14:59:13;26.90;1.00
3912;DHT22;1971;51.778;10.330;2023-06-10T15:01:43;27.20;1.00
3912;DHT22;1971;51.778;10.330;2023-06-10T15:04:13;27.00;1.00
3912;DHT22;1971;51.778;10.330;2023-06-10T15:06:48;26.70;1.00
3912;DHT22;1971;51.778;10.330;2023-06-10T15:09:18;26.50;1.00
3912;DHT22;1971;51.778;10.330;2023-06-10T15:11:48;26.50;1.00
3912;DHT22;1971;51.778;10.330;2023-06-10T15:14:21;26.90;1.00
3912;DHT22;1971;51.778;10.330;2023-06-10T15:16:51;26.60;1.00
3912;DHT22;1971;51.778;10.330;2023-06-10T15:19:23;26.30;1.00
3912;DHT22;1971;51.778;10.330;2023-06-10T15:21:53;26.30;1.00
3912;DHT22;1971;51.778;10.330;2023-06-10T15:24:23;26.60;1.00
3912;DHT22;1971;51.778;10.330;2023-06-10T15:26:53;26.70;1.00
3912;DHT22;1971;51.778;10.330;2023-06-10T15:29:27;26.60;1.00
3912;DHT22;1971;51.778;10.330;2023-06-10T15:31:57;26.30;1.00
3912;DHT22;1971;51.778;10.330;2023-06-10T15:34:27;26.20;1.00
3912;DHT22;1971;51.778;10.330;2023-06-10T15:36:57;25.80;1.00
3912;DHT22;1971;51.778;10.330;2023-06-10T15:39:27;25.40;1.00
3912;DHT22;1971;51.778;10.330;2023-06-10T15:41:58;24.80;1.00
3912;DHT22;1971;51.778;10.330;2023-06-10T15:44:31;24.50;1.00
3912;DHT22;1971;51.778;10.330;2023-06-10T15:47:01;24.70;1.00
3912;DHT22;1971;51.778;10.330;2023-06-10T15:49:31;24.20;1.00
3912;DHT22;1971;51.778;10.330;2023-06-10T15:52:01;24.20;1.00
3912;DHT22;1971;51.778;10.330;2023-06-10T15:54:30;24.30;1.00
3912;DHT22;1971;51.778;10.330;2023-06-10T15:57:00;25.00;1.00
3912;DHT22;1971;51.778;10.330;2023-06-10T15:59:33;25.30;1.00
3912;DHT22;1971;51.778;10.330;2023-06-10T16:02:04;25.40;1.00
3912;DHT22;1971;51.778;10.330;2023-06-10T16:04:34;25.30;1.00
3912;DHT22;1971;51.778;10.330;2023-06-10T16:07:04;24.70;1.00
3912;DHT22;1971;51.778;10.330;2023-06-10T16:09:34;24.10;1.00
3912;DHT22;1971;51.778;10.330;2023-06-10T16:12:05;23.60;1.00
3912;DHT22;1971;51.778;10.330;2023-06-10T16:14:38;23.00;1.00
3912;DHT22;1971;51.778;10.330;2023-06-10T16:17:08;22.50;1.00
3912;DHT22;1971;51.778;10.330;2023-06-10T16:19:38;22.70;1.00
3912;DHT22;1971;51.778;10.330;2023-06-10T16:22:08;22.70;1.00
3912;DHT22;1971;51.778;10.330;2023-06-10T16:24:38;22.60;1.00
3912;DHT22;1971;51.778;10.330;2023-06-10T16:27:08;23.00;1.00
3912;DHT22;1971;51.778;10.330;2023-06-10T16:29:41;23.00;1.00
3912;DHT22;1971;51.778;10.330;2023-06-10T16:32:11;23.00;1.00
3912;DHT22;1971;51.778;10.330;2023-06-10T16:34:41;23.40;1.00
3912;DHT22;1971;51.778;10.330;2023-06-10T16:37:11;23.00;1.00
3912;DHT22;1971;51.778;10.330;2023-06-10T16:39:41;23.10;1.00
3912;DHT22;1971;51.778;10.330;2023-06-10T16:42:11;23.50;1.00
3912;DHT22;1971;51.778;10.330;2023-06-10T16:44:44;23.40;1.00
3912;DHT22;1971;51.778;10.330;2023-06-10T16:47:14;23.60;1.00
3912;DHT22;1971;51.778;10.330;2023-06-10T16:49:45;23.50;1.00
3912;DHT22;1971;51.778;10.330;2023-06-10T16:52:17;23.60;1.00
3912;DHT22;1971;51.778;10.330;2023-06-10T16:54:47;23.80;1.00
3912;DHT22;1971;51.778;10.330;2023-06-10T16:57:17;23.60;1.00
3912;DHT22;1971;51.778;10.330;2023-06-10T16:59:49;23.50;1.00
3912;DHT22;1971;51.778;10.330;2023-06-10T17:02:20;23.40;1.00
3912;DHT22;1971;51.778;10.330;2023-06-10T17:04:50;23.70;1.00
3912;DHT22;1971;51.778;10.330;2023-06-10T17:07:23;24.30;1.00
3912;DHT22;1971;51.778;10.330;2023-06-10T17:09:53;24.30;1.00
3912;DHT22;1971;51.778;10.330;2023-06-10T17:12:23;24.80;1.00
3912;DHT22;1971;51.778;10.330;2023-06-10T17:14:56;24.90;1.00
3912;DHT22;1971;51.778;10.330;2023-06-10T17:17:26;25.20;1.00
3912;DHT22;1971;51.778;10.330;2023-06-10T17:19:56;25.10;1.00
3912;DHT22;1971;51.778;10.330;2023-06-10T17:22:26;24.80;1.00
3912;DHT22;1971;51.778;10.330;2023-06-10T17:24:56;24.80;1.00
3912;DHT22;1971;51.778;10.330;2023-06-10T17:27:26;25.20;1.00
3912;DHT22;1971;51.778;10.330;2023-06-10T17:29:59;25.00;1.00
3912;DHT22;1971;51.778;10.330;2023-06-10T17:32:29;25.30;1.00
3912;DHT22;1971;51.778;10.330;2023-06-10T17:35:00;25.60;1.00
3912;DHT22;1971;51.778;10.330;2023-06-10T17:37:30;25.60;1.00
3912;DHT22;1971;51.778;10.330;2023-06-10T17:40:00;25.80;1.00
3912;DHT22;1971;51.778;10.330;2023-06-10T17:42:30;26.30;1.00
3912;DHT22;1971;51.778;10.330;2023-06-10T17:45:03;26.70;1.00
3912;DHT22;1971;51.778;10.330;2023-06-10T17:47:34;26.70;1.00
3912;DHT22;1971;51.778;10.330;2023-06-10T17:50:05;26.80;1.00
3912;DHT22;1971;51.778;10.330;2023-06-10T17:52:35;26.90;1.00
3912;DHT22;1971;51.778;10.330;2023-06-10T17:55:06;26.90;1.00
3912;DHT22;1971;51.778;10.330;2023-06-10T17:57:36;26.80;1.00
3912;DHT22;1971;51.778;10.330;2023-06-10T18:00:10;27.00;1.00
3912;DHT22;1971;51.778;10.330;2023-06-10T18:02:41;27.70;1.00
3912;DHT22;1971;51.778;10.330;2023-06-10T18:05:11;27.80;1.00
3912;DHT22;1971;51.778;10.330;2023-06-10T18:07:41;28.00;1.00
3912;DHT22;1971;51.778;10.330;2023-06-10T18:10:12;27.80;1.00
3912;DHT22;1971;51.778;10.330;2023-06-10T18:12:42;27.40;1.00
3912;DHT22;1971;51.778;10.330;2023-06-10T18:15:14;26.80;1.00
3912;DHT22;1971;51.778;10.330;2023-06-10T18:17:45;26.30;1.00
3912;DHT22;1971;51.778;10.330;2023-06-10T18:20:15;26.40;1.00
3912;DHT22;1971;51.778;10.330;2023-06-10T18:22:45;26.30;1.00
3912;DHT22;1971;51.778;10.330;2023-06-10T18:25:15;26.20;1.00
3912;DHT22;1971;51.778;10.330;2023-06-10T18:27:45;26.10;1.00
3912;DHT22;1971;51.778;10.330;2023-06-10T18:30:18;25.80;1.00
3912;DHT22;1971;51.778;10.330;2023-06-10T18:32:48;24.80;1.00
3912;DHT22;1971;51.778;10.330;2023-06-10T18:35:18;24.00;1.00
3912;DHT22;1971;51.778;10.330;2023-06-10T18:37:49;23.40;1.00
3912;DHT22;1971;51.778;10.330;2023-06-10T18:40:19;23.10;1.00
3912;DHT22;1971;51.778;10.330;2023-06-10T18:42:50;22.90;1.00
3912;DHT22;1971;51.778;10.330;2023-06-10T18:45:22;22.60;1.00
3912;DHT22;1971;51.778;10.330;2023-06-10T18:47:53;22.50;1.00
3912;DHT22;1971;51.778;10.330;2023-06-10T18:50:25;22.30;1.00
3912;DHT22;1971;51.778;10.330;2023-06-10T18:52:56;22.30;1.00
3912;DHT22;1971;51.778;10.330;2023-06-10T18:55:26;22.20;1.00
3912;DHT22;1971;51.778;10.330;2023-06-10T18:57:59;22.10;1.00
3912;DHT22;1971;51.778;10.330;2023-06-10T19:00:32;22.10;1.00
3912;DHT22;1971;51.778;10.330;2023-06-10T19:03:02;21.90;1.00
3912;DHT22;1971;51.778;10.330;2023-06-10T19:05:32;21.80;1.00
3912;DHT22;1971;51.778;10.330;2023-06-10T19:08:03;21.70;1.00
3912;DHT22;1971;51.778;10.330;2023-06-10T19:10:33;21.50;1.00
3912;DHT22;1971;51.778;10.330;2023-06-10T19:13:03;21.30;1.00
3912;DHT22;1971;51.778;10.330;2023-06-10T19:15:36;21.20;1.00
3912;DHT22;1971;51.778;10.330;2023-06-10T19:18:08;21.10;1.00
3912;DHT22;1971;51.778;10.330;2023-06-10T19:20:38;21.20;1.00
3912;DHT22;1971;51.778;10.330;2023-06-10T19:23:09;21.20;1.00
3912;DHT22;1971;51.778;10.330;2023-06-10T19:25:39;21.10;1.00
3912;DHT22;1971;51.778;10.330;2023-06-10T19:28:09;21.00;1.00
3912;DHT22;1971;51.778;10.330;2023-06-10T19:30:43;21.00;1.00
3912;DHT22;1971;51.778;10.330;2023-06-10T19:33:12;20.90;1.00
3912;DHT22;1971;51.778;10.330;2023-06-10T19:35:42;20.80;1.00
3912;DHT22;1971;51.778;10.330;2023-06-10T19:38:12;20.60;1.00
3912;DHT22;1971;51.778;10.330;2023-06-10T19:40:43;20.50;1.00
3912;DHT22;1971;51.778;10.330;2023-06-10T19:43:13;20.40;1.00
3912;DHT22;1971;51.778;10.330;2023-06-10T19:45:45;20.30;1.00
3912;DHT22;1971;51.778;10.330;2023-06-10T19:48:15;20.30;1.00
3912;DHT22;1971;51.778;10.330;2023-06-10T19:50:45;20.10;1.00
3912;DHT22;1971;51.778;10.330;2023-06-10T19:53:15;19.90;1.00
3912;DHT22;1971;51.778;10.330;2023-06-10T19:55:46;19.70;1.00
3912;DHT22;1971;51.778;10.330;2023-06-10T19:58:15;19.50;1.00
3912;DHT22;1971;51.778;10.330;2023-06-10T20:00:48;19.50;1.00
3912;DHT22;1971;51.778;10.330;2023-06-10T20:03:18;19.50;1.00
3912;DHT22;1971;51.778;10.330;2023-06-10T20:05:48;19.50;1.00
3912;DHT22;1971;51.778;10.330;2023-06-10T20:08:18;19.60;1.00
3912;DHT22;1971;51.778;10.330;2023-06-10T20:10:49;19.60;1.00
3912;DHT22;1971;51.778;10.330;2023-06-10T20:13:19;19.70;1.00
3912;DHT22;1971;51.778;10.330;2023-06-10T20:15:54;19.70;1.00
3912;DHT22;1971;51.778;10.330;2023-06-10T20:18:24;19.80;1.00
3912;DHT22;1971;51.778;10.330;2023-06-10T20:20:54;19.80;1.00
3912;DHT22;1971;51.778;10.330;2023-06-10T20:23:24;19.70;1.00
3912;DHT22;1971;51.778;10.330;2023-06-10T20:25:55;19.60;1.00
3912;DHT22;1971;51.778;10.330;2023-06-10T20:28:25;19.70;1.00
3912;DHT22;1971;51.778;10.330;2023-06-10T20:31:00;19.60;1.00
3912;DHT22;1971;51.778;10.330;2023-06-10T20:34:08;19.70;1.00
3912;DHT22;1971;51.778;10.330;2023-06-10T20:38:00;19.70;1.00
3912;DHT22;1971;51.778;10.330;2023-06-10T20:41:36;19.50;1.00
3912;DHT22;1971;51.778;10.330;2023-06-10T20:45:28;19.40;1.00
3912;DHT22;1971;51.778;10.330;2023-06-10T20:52:13;19.40;1.00
3912;DHT22;1971;51.778;10.330;2023-06-10T20:55:51;19.40;1.00
3912;DHT22;1971;51.778;10.330;2023-06-10T20:59:09;19.50;1.00
3912;DHT22;1971;51.778;10.330;2023-06-10T21:02:26;19.50;1.00
3912;DHT22;1971;51.778;10.330;2023-06-10T21:05:46;19.60;1.00
3912;DHT22;1971;51.778;10.330;2023-06-10T21:08:50;19.50;1.00
3912;DHT22;1971;51.778;10.330;2023-06-10T21:12:04;19.60;1.00
3912;DHT22;1971;51.778;10.330;2023-06-10T21:15:33;19.60;1.00
3912;DHT22;1971;51.778;10.330;2023-06-10T21:18:52;19.60;1.00
3912;DHT22;1971;51.778;10.330;2023-06-10T21:26:15;19.50;1.00
3912;DHT22;1971;51.778;10.330;2023-06-10T21:29:36;19.50;1.00
3912;DHT22;1971;51.778;10.330;2023-06-10T21:33:17;19.50;1.00
3912;DHT22;1971;51.778;10.330;2023-06-10T21:36:15;19.40;1.00
3912;DHT22;1971;51.778;10.330;2023-06-10T21:39:08;19.40;1.00
3912;DHT22;1971;51.778;10.330;2023-06-10T21:42:43;19.30;1.00
3912;DHT22;1971;51.778;10.330;2023-06-10T21:45:58;19.20;1.00
3912;DHT22;1971;51.778;10.330;2023-06-10T21:48:56;19.20;1.00
3912;DHT22;1971;51.778;10.330;2023-06-10T21:51:43;19.10;1.00
3912;DHT22;1971;51.778;10.330;2023-06-10T21:55:06;19.10;1.00
3912;DHT22;1971;51.778;10.330;2023-06-10T21:58:42;19.00;1.00